Great Barford, United Kingdom
Current Conditions -  °F | °C
As of 4:20 PM on Monday 26 Jan 2015 (Local Time) from EGTC Reporting Station
Broken Clouds Broken Clouds  
Wind Chill: 39°   Ceiling: 4200
Heat Index: 45°   Visibility: 6mi
Dew Point: 36°   Wind: 10mph
Humidity: 71%   Direction: 300°WNW
Pressure: 30.24"   Gusts: NA
Location:  52.16°N, 0.35°W
Report Text: EGTC 261620Z 30009KT 9999 FEW030 BKN042 07/02 Q1024
Loading
Personal Weather Stations






























Interactive Weather Map New forecast layout! Learn more

10-Day Weather Forecast

Advertisements
Track Severe Weather on mobile